Time;durP1;ratioP1;P1;durP2;ratioP2;P2;SDS_P1;SDS_P2;PMS_P1;PMS_P2;Temp;Humidity;BMP_temperature;BMP_pressure;BME280_temperature;BME280_humidity;BME280_pressure;Samples;Min_cycle;Max_cycle;Signal;HPM_P1;HPM_P2
2023/08/23 00:00:14;;;;;;;8.50;7.30;;;17.70;99.90;;;;;;5056071;28;20048;-62
2023/08/23 00:02:41;;;;;;;9.65;7.25;;;17.60;99.90;;;;;;5045568;28;20052;-63
2023/08/23 00:05:07;;;;;;;10.05;7.28;;;17.60;99.90;;;;;;5053284;28;20053;-62
2023/08/23 00:07:34;;;;;;;9.88;8.20;;;17.60;99.90;;;;;;5035660;28;20068;-62
2023/08/23 00:10:00;;;;;;;9.93;8.13;;;17.60;99.90;;;;;;5053235;28;20163;-63
2023/08/23 00:12:26;;;;;;;10.30;8.38;;;17.50;99.90;;;;;;5060659;28;20055;-62
2023/08/23 00:15:25;;;;;;;8.55;6.60;;;17.40;99.90;;;;;;5073237;28;20051;-63
2023/08/23 00:18:04;;;;;;;8.52;7.28;;;17.40;99.90;;;;;;5055677;28;20515;-63
2023/08/23 00:20:30;;;;;;;11.32;8.25;;;17.40;99.90;;;;;;5073190;28;20055;-63
2023/08/23 00:22:56;;;;;;;9.93;7.80;;;17.40;99.90;;;;;;5060508;28;20432;-63
2023/08/23 00:25:22;;;;;;;10.13;7.90;;;17.40;99.90;;;;;;5053135;28;20130;-63
2023/08/23 00:27:50;;;;;;;9.75;8.30;;;17.30;99.90;;;;;;5035219;28;20067;-63
2023/08/23 00:30:16;;;;;;;10.60;8.48;;;17.30;99.90;;;;;;5053052;28;20064;-63
2023/08/23 00:32:43;;;;;;;9.70;7.70;;;17.20;99.90;;;;;;5044117;28;20064;-63
2023/08/23 00:35:09;;;;;;;10.73;8.65;;;17.20;99.90;;;;;;5072784;28;20101;-62
2023/08/23 00:37:36;;;;;;;10.45;8.48;;;17.20;99.90;;;;;;5072384;28;20059;-63
2023/08/23 00:40:02;;;;;;;9.80;8.80;;;17.20;99.90;;;;;;5072754;28;20049;-63
2023/08/23 00:42:29;;;;;;;9.70;8.70;;;17.10;99.90;;;;;;5030593;28;20048;-63
2023/08/23 00:44:55;;;;;;;10.55;8.40;;;17.20;99.90;;;;;;5035059;28;20053;-62
2023/08/23 00:47:21;;;;;;;9.85;8.82;;;17.10;99.90;;;;;;5052477;28;20049;-62
2023/08/23 00:49:48;;;;;;;10.60;9.60;;;17.10;99.90;;;;;;5053077;28;20064;-63
2023/08/23 00:52:16;;;;;;;11.25;8.35;;;17.00;99.90;;;;;;5058135;28;20087;-62
2023/08/23 00:54:43;;;;;;;9.93;8.88;;;17.10;99.90;;;;;;5072251;28;20071;-62
2023/08/23 00:57:10;;;;;;;11.23;9.20;;;17.00;99.90;;;;;;5072519;28;20055;-62
2023/08/23 00:59:45;;;;;;;12.63;9.52;;;17.10;99.90;;;;;;5054419;28;20044;-63
2023/08/23 01:02:11;;;;;;;11.77;9.68;;;17.00;99.90;;;;;;5066977;28;20405;-62
2023/08/23 01:04:37;;;;;;;13.10;10.13;;;16.90;99.90;;;;;;5052188;28;20164;-62
2023/08/23 01:07:13;;;;;;;11.73;9.30;;;16.90;99.90;;;;;;5034487;28;20060;-62
2023/08/23 01:10:06;;;;;;;12.73;9.13;;;16.90;99.90;;;;;;5034893;28;20140;-62
2023/08/23 01:13:02;;;;;;;12.13;9.65;;;16.90;99.90;;;;;;5059591;28;20119;-63
2023/08/23 01:15:30;;;;;;;11.15;9.80;;;17.00;99.90;;;;;;5071497;28;20457;-62
2023/08/23 01:17:58;;;;;;;14.10;10.10;;;17.00;99.90;;;;;;5072003;28;20055;-63
2023/08/23 01:20:24;;;;;;;13.20;10.43;;;16.90;99.90;;;;;;5071823;28;20055;-62
2023/08/23 01:23:03;;;;;;;13.85;10.48;;;17.00;99.90;;;;;;5061238;28;20515;-63
2023/08/23 01:25:31;;;;;;;12.68;10.10;;;16.90;99.90;;;;;;5051831;28;20408;-62
2023/08/23 01:27:57;;;;;;;13.45;9.40;;;17.00;99.90;;;;;;5051799;28;20110;-62
2023/08/23 01:30:25;;;;;;;13.45;9.93;;;17.00;99.90;;;;;;5052318;28;20060;-63
2023/08/23 01:33:06;;;;;;;12.95;10.05;;;17.10;99.90;;;;;;5061458;28;20052;-62
2023/08/23 01:35:57;;;;;;;13.25;10.40;;;17.00;99.90;;;;;;5071523;28;20142;-62
2023/08/23 01:38:26;;;;;;;13.77;10.95;;;17.10;99.90;;;;;;5071602;28;20044;-62
2023/08/23 01:40:55;;;;;;;12.57;9.98;;;16.90;99.90;;;;;;5072079;28;20052;-63
2023/08/23 01:43:22;;;;;;;11.63;9.75;;;16.90;99.90;;;;;;5055692;28;20118;-62
2023/08/23 01:45:48;;;;;;;12.80;9.45;;;16.90;99.90;;;;;;5051965;28;20044;-64
2023/08/23 01:48:16;;;;;;;13.30;9.55;;;16.80;99.90;;;;;;5034223;28;20461;-63
2023/08/23 01:50:42;;;;;;;12.43;9.40;;;16.80;99.90;;;;;;5033961;28;20057;-63
2023/08/23 01:53:09;;;;;;;12.30;9.60;;;16.80;99.90;;;;;;5033333;28;20049;-63
2023/08/23 01:55:35;;;;;;;11.75;10.40;;;16.70;99.90;;;;;;5051504;28;20052;-62
2023/08/23 01:58:01;;;;;;;12.27;10.07;;;16.70;99.90;;;;;;5051209;28;20044;-62
2023/08/23 02:00:27;;;;;;;12.18;10.45;;;16.70;99.90;;;;;;5051797;28;20056;-63
2023/08/23 02:02:54;;;;;;;11.65;10.35;;;16.60;99.90;;;;;;5050919;28;20053;-62
2023/08/23 02:05:20;;;;;;;12.82;10.75;;;16.60;99.90;;;;;;5051025;28;20057;-62
2023/08/23 02:07:46;;;;;;;13.32;10.27;;;16.60;99.90;;;;;;5050971;28;20049;-62
2023/08/23 02:10:13;;;;;;;13.57;10.48;;;16.60;99.90;;;;;;5033482;28;20053;-63
2023/08/23 02:12:42;;;;;;;13.05;10.40;;;16.60;99.90;;;;;;5032842;28;20056;-63
2023/08/23 02:15:08;;;;;;;14.35;11.77;;;16.60;99.90;;;;;;5051198;28;20532;-62
2023/08/23 02:17:34;;;;;;;11.88;9.70;;;16.50;99.90;;;;;;5033509;28;20041;-62
2023/08/23 02:20:00;;;;;;;13.55;11.18;;;16.40;99.90;;;;;;5051194;28;20056;-63
2023/08/23 02:22:27;;;;;;;12.35;9.82;;;16.50;99.90;;;;;;5033324;28;20107;-63
2023/08/23 02:24:54;;;;;;;11.93;10.00;;;16.50;99.90;;;;;;5051356;28;20052;-62
2023/08/23 02:27:21;;;;;;;11.82;10.40;;;16.30;99.90;;;;;;5051279;28;20045;-63
2023/08/23 02:29:47;;;;;;;12.63;10.75;;;16.30;99.90;;;;;;5055417;28;20053;-62
2023/08/23 02:32:13;;;;;;;12.20;10.57;;;16.40;99.90;;;;;;5054830;28;20045;-63
2023/08/23 02:34:39;;;;;;;11.82;9.93;;;16.30;99.90;;;;;;5037542;28;20319;-62
2023/08/23 02:37:06;;;;;;;12.25;10.05;;;16.40;99.90;;;;;;5054942;28;20098;-63
2023/08/23 02:39:32;;;;;;;13.75;10.15;;;16.30;99.90;;;;;;5037198;28;20097;-63
2023/08/23 02:41:58;;;;;;;13.55;11.18;;;16.40;99.90;;;;;;5038140;28;20087;-63
2023/08/23 02:44:25;;;;;;;14.45;10.68;;;16.20;99.90;;;;;;5054501;28;20056;-62
2023/08/23 02:46:51;;;;;;;12.43;9.68;;;16.30;99.90;;;;;;5054479;28;20359;-62
2023/08/23 02:49:17;;;;;;;14.93;10.30;;;16.20;99.90;;;;;;5055099;28;20049;-62
2023/08/23 02:51:43;;;;;;;13.43;10.07;;;16.20;99.90;;;;;;5054907;28;20049;-63
2023/08/23 02:54:10;;;;;;;12.00;10.10;;;16.30;99.90;;;;;;5056923;28;20045;-63
2023/08/23 02:56:36;;;;;;;12.23;10.07;;;16.30;99.90;;;;;;5074789;28;20305;-62
2023/08/23 02:59:05;;;;;;;13.60;10.13;;;16.20;99.90;;;;;;5074464;28;20460;-63
2023/08/23 03:01:33;;;;;;;12.50;9.82;;;16.30;99.90;;;;;;5056946;28;20044;-63
2023/08/23 03:03:59;;;;;;;13.07;10.13;;;16.10;99.90;;;;;;5036922;28;20438;-63
2023/08/23 03:06:26;;;;;;;12.05;8.98;;;16.20;99.90;;;;;;5054387;28;20057;-63
2023/08/23 03:08:53;;;;;;;14.43;9.75;;;16.10;99.90;;;;;;5036605;28;20052;-63
2023/08/23 03:11:20;;;;;;;15.30;10.00;;;16.10;99.90;;;;;;5054262;28;20122;-63
2023/08/23 03:13:46;;;;;;;12.25;9.38;;;16.10;99.90;;;;;;5071158;28;20044;-62
2023/08/23 03:16:12;;;;;;;11.93;9.48;;;16.10;99.90;;;;;;5056408;28;20098;-62
2023/08/23 03:18:38;;;;;;;12.80;8.75;;;16.10;99.90;;;;;;5074224;28;20045;-62
2023/08/23 03:21:05;;;;;;;10.50;9.13;;;16.10;99.90;;;;;;5073927;28;20384;-62
2023/08/23 03:23:31;;;;;;;13.65;9.48;;;16.10;99.90;;;;;;5058642;28;20528;-63
2023/08/23 03:25:57;;;;;;;10.70;8.90;;;16.10;99.90;;;;;;5054052;28;20053;-62
2023/08/23 03:28:24;;;;;;;12.32;8.85;;;16.00;99.90;;;;;;5053754;28;20053;-62
2023/08/23 03:30:52;;;;;;;13.40;8.35;;;16.00;99.90;;;;;;5036990;28;20053;-62
2023/08/23 03:33:18;;;;;;;12.25;8.93;;;15.90;99.90;;;;;;5066550;28;20067;-63
2023/08/23 03:35:52;;;;;;;11.02;8.77;;;16.00;99.90;;;;;;5056012;28;20048;-61
2023/08/23 03:38:19;;;;;;;10.60;8.32;;;16.00;99.90;;;;;;5048001;28;20488;-63
2023/08/23 03:40:46;;;;;;;10.45;9.15;;;15.90;99.90;;;;;;5054092;28;20102;-62
2023/08/23 03:43:14;;;;;;;9.77;8.43;;;15.90;99.90;;;;;;5035791;28;20071;-63
2023/08/23 03:45:49;;;;;;;10.95;7.93;;;15.90;99.90;;;;;;5054187;28;20053;-62
2023/08/23 03:48:17;;;;;;;8.95;7.72;;;15.90;99.90;;;;;;5054148;28;20087;-62
2023/08/23 03:50:43;;;;;;;10.80;7.95;;;15.80;99.90;;;;;;5053724;28;20098;-62
2023/08/23 03:53:09;;;;;;;9.32;8.32;;;15.80;99.90;;;;;;5053132;28;20041;-62
2023/08/23 03:55:37;;;;;;;9.93;8.10;;;15.80;99.90;;;;;;5053651;28;20064;-63
2023/08/23 03:58:04;;;;;;;8.57;7.68;;;15.70;99.90;;;;;;5035812;28;20102;-62
2023/08/23 04:00:30;;;;;;;9.40;8.23;;;15.80;99.90;;;;;;5036294;28;20041;-63
2023/08/23 04:02:56;;;;;;;9.60;7.90;;;15.70;99.90;;;;;;5052910;28;20049;-64
2023/08/23 04:05:23;;;;;;;9.30;7.72;;;15.70;99.90;;;;;;5053531;28;20048;-63
2023/08/23 04:08:07;;;;;;;8.57;7.40;;;15.70;99.90;;;;;;5035877;28;20045;-63
2023/08/23 04:11:05;;;;;;;8.45;7.45;;;15.70;99.90;;;;;;5053809;28;20052;-63
2023/08/23 04:13:31;;;;;;;8.57;7.68;;;15.70;99.90;;;;;;5035228;28;20342;-63
2023/08/23 04:16:06;;;;;;;8.57;7.47;;;15.70;99.90;;;;;;5019415;28;20053;-63
2023/08/23 04:18:32;;;;;;;9.98;7.78;;;15.70;99.90;;;;;;5054581;28;20036;-63
2023/08/23 04:21:06;;;;;;;10.02;7.93;;;15.70;99.90;;;;;;5035675;28;20051;-63
2023/08/23 04:23:33;;;;;;;11.75;7.35;;;15.70;99.90;;;;;;5052858;28;20361;-64
2023/08/23 04:25:59;;;;;;;11.25;7.53;;;15.70;99.90;;;;;;5035430;28;20044;-63
2023/08/23 04:28:26;;;;;;;9.60;7.00;;;15.70;99.90;;;;;;5053094;28;20053;-62
2023/08/23 04:30:52;;;;;;;10.48;7.85;;;15.70;99.90;;;;;;5053059;28;20088;-62
2023/08/23 04:33:18;;;;;;;13.40;8.70;;;15.70;99.90;;;;;;5048187;28;20040;-63
2023/08/23 04:35:45;;;;;;;11.77;8.00;;;15.80;99.90;;;;;;5034907;28;20048;-62
2023/08/23 04:38:13;;;;;;;9.40;7.95;;;15.60;99.90;;;;;;5058377;28;20079;-62
2023/08/23 04:40:40;;;;;;;10.57;7.82;;;15.70;99.90;;;;;;5054907;28;20147;-63
2023/08/23 04:43:06;;;;;;;8.88;7.57;;;15.70;99.90;;;;;;5054312;28;20101;-62
2023/08/23 04:45:36;;;;;;;8.73;7.13;;;15.80;99.90;;;;;;5072309;28;20044;-63
2023/08/23 04:48:04;;;;;;;9.88;8.38;;;15.90;99.90;;;;;;5054770;28;20075;-62
2023/08/23 04:50:33;;;;;;;10.95;8.25;;;15.90;99.90;;;;;;5071710;28;20048;-62
2023/08/23 04:52:59;;;;;;;9.38;7.72;;;15.90;99.90;;;;;;5071502;28;20102;-62
2023/08/23 04:55:26;;;;;;;11.45;7.90;;;16.00;99.90;;;;;;5072596;28;20114;-62
2023/08/23 04:57:52;;;;;;;10.32;8.07;;;16.00;99.90;;;;;;5054905;28;20093;-63
2023/08/23 05:00:19;;;;;;;10.27;7.53;;;15.90;99.90;;;;;;5054073;28;20473;-62
2023/08/23 05:02:46;;;;;;;9.73;7.72;;;16.00;99.90;;;;;;5053793;28;20059;-62
2023/08/23 05:05:12;;;;;;;8.30;7.35;;;16.00;99.90;;;;;;5072089;28;20063;-63
2023/08/23 05:07:39;;;;;;;9.50;7.82;;;16.00;99.90;;;;;;5072167;28;20056;-63
2023/08/23 05:10:06;;;;;;;9.48;7.03;;;16.00;99.90;;;;;;5072030;28;20441;-62
2023/08/23 05:12:32;;;;;;;8.05;7.25;;;15.90;99.90;;;;;;5071415;28;20089;-63
2023/08/23 05:14:59;;;;;;;9.07;7.63;;;16.00;99.90;;;;;;5072332;28;20044;-62
2023/08/23 05:17:25;;;;;;;9.48;7.15;;;15.90;99.90;;;;;;5037236;28;20049;-62
2023/08/23 05:19:52;;;;;;;12.18;7.32;;;15.90;99.90;;;;;;5053617;28;20047;-62
2023/08/23 05:22:19;;;;;;;9.20;7.63;;;15.90;99.90;;;;;;5053127;28;20071;-62
2023/08/23 05:24:45;;;;;;;9.50;7.32;;;15.90;99.90;;;;;;5072007;28;20045;-61
2023/08/23 05:27:12;;;;;;;12.60;7.78;;;15.80;99.90;;;;;;5071803;28;20118;-62
2023/08/23 05:29:38;;;;;;;9.70;7.22;;;15.90;99.90;;;;;;5053971;28;20061;-60
2023/08/23 05:32:04;;;;;;;9.55;7.70;;;15.80;99.90;;;;;;5053054;28;20060;-62
2023/08/23 05:34:30;;;;;;;9.55;7.18;;;15.90;99.90;;;;;;5071417;28;20418;-63
2023/08/23 05:36:57;;;;;;;8.73;7.25;;;15.90;99.90;;;;;;5071245;28;20060;-62
2023/08/23 05:39:23;;;;;;;9.20;7.53;;;15.90;99.90;;;;;;5070979;28;20045;-62
2023/08/23 05:41:49;;;;;;;10.68;7.20;;;15.90;99.90;;;;;;5071629;28;20163;-62
2023/08/23 05:44:15;;;;;;;10.13;7.30;;;16.00;99.90;;;;;;5070739;28;20423;-62
2023/08/23 05:46:42;;;;;;;10.13;7.20;;;16.40;99.90;;;;;;5071615;28;20052;-62
2023/08/23 05:49:08;;;;;;;10.60;7.35;;;16.60;99.90;;;;;;5071513;28;20159;-62
2023/08/23 05:51:34;;;;;;;9.85;7.32;;;16.80;99.90;;;;;;5071062;28;20469;-62
2023/08/23 05:54:00;;;;;;;9.88;8.00;;;16.90;99.90;;;;;;5052746;28;20114;-60
2023/08/23 05:56:27;;;;;;;9.15;7.75;;;17.20;99.90;;;;;;5071509;28;20044;-61
2023/08/23 05:58:53;;;;;;;12.02;8.45;;;17.80;99.90;;;;;;5071822;28;20136;-63
2023/08/23 06:01:19;;;;;;;10.07;8.15;;;18.60;99.90;;;;;;5071402;28;20048;-63
2023/08/23 06:03:45;;;;;;;10.68;7.97;;;19.10;99.90;;;;;;5075275;28;20053;-63
2023/08/23 06:06:13;;;;;;;9.90;7.43;;;19.10;99.90;;;;;;5041361;28;20048;-62
2023/08/23 06:08:39;;;;;;;8.93;7.43;;;18.80;99.90;;;;;;5075679;28;20330;-62
2023/08/23 06:11:05;;;;;;;10.25;7.68;;;18.70;99.90;;;;;;5075876;28;20048;-63
2023/08/23 06:13:32;;;;;;;9.73;7.85;;;18.50;99.90;;;;;;5074540;28;20049;-62
2023/08/23 06:15:58;;;;;;;10.25;7.75;;;18.50;99.90;;;;;;5075570;28;20052;-62
2023/08/23 06:18:25;;;;;;;8.95;7.97;;;18.30;99.90;;;;;;5058093;28;20084;-62
2023/08/23 06:20:53;;;;;;;10.18;7.35;;;18.30;99.90;;;;;;5075430;28;20055;-62
2023/08/23 06:23:19;;;;;;;9.13;7.43;;;18.20;99.90;;;;;;5074925;28;20114;-63
2023/08/23 06:25:46;;;;;;;9.05;7.82;;;18.50;99.90;;;;;;5041350;28;20048;-62
2023/08/23 06:28:12;;;;;;;8.90;7.97;;;19.00;99.90;;;;;;5075218;28;20118;-62
2023/08/23 06:30:38;;;;;;;9.02;7.68;;;19.70;99.90;;;;;;5075386;28;20361;-62
2023/08/23 06:33:05;;;;;;;11.02;7.47;;;20.30;99.90;;;;;;5073873;28;20048;-62
2023/08/23 06:35:32;;;;;;;9.05;7.70;;;20.60;99.90;;;;;;5057381;28;20438;-63
2023/08/23 06:37:59;;;;;;;9.07;7.70;;;20.90;99.90;;;;;;5075458;28;20064;-61
2023/08/23 06:40:26;;;;;;;8.85;7.30;;;21.10;99.90;;;;;;5074047;28;20480;-62
2023/08/23 06:42:52;;;;;;;8.85;7.13;;;21.50;99.90;;;;;;5066261;28;20385;-64
2023/08/23 06:45:19;;;;;;;8.73;6.78;;;22.20;99.90;;;;;;5054188;28;20071;-64
2023/08/23 06:47:45;;;;;;;8.57;6.90;;;22.70;99.90;;;;;;5055256;28;20052;-63
2023/08/23 06:50:11;;;;;;;8.73;6.95;;;23.10;99.90;;;;;;5055082;28;20052;-63
2023/08/23 06:52:37;;;;;;;9.68;7.47;;;23.50;99.90;;;;;;5060224;28;20071;-63
2023/08/23 06:55:04;;;;;;;9.82;8.30;;;23.60;99.90;;;;;;5074226;28;20423;-64
2023/08/23 06:57:31;;;;;;;8.30;7.50;;;23.70;99.90;;;;;;5074318;28;20437;-63
2023/08/23 06:59:58;;;;;;;10.18;8.18;;;23.90;99.90;;;;;;5076612;28;20444;-62
2023/08/23 07:02:25;;;;;;;8.80;7.90;;;24.00;99.90;;;;;;5090393;28;20098;-62
2023/08/23 07:04:52;;;;;;;9.07;7.35;;;24.10;99.90;;;;;;5074702;28;20052;-63
2023/08/23 07:07:22;;;;;;;7.63;6.80;;;24.30;99.90;;;;;;5056793;28;20071;-63
2023/08/23 07:09:49;;;;;;;8.65;7.68;;;24.30;99.90;;;;;;5074589;28;20048;-63
2023/08/23 07:12:16;;;;;;;8.80;7.47;;;24.50;99.90;;;;;;5025943;28;20048;-62
2023/08/23 07:14:42;;;;;;;9.27;7.30;;;24.20;99.90;;;;;;5094143;28;20109;-63
2023/08/23 07:17:09;;;;;;;8.57;7.50;;;23.70;99.90;;;;;;5094628;28;20093;-63
2023/08/23 07:19:35;;;;;;;9.38;7.78;;;23.10;99.90;;;;;;5094662;28;20044;-63
2023/08/23 07:22:03;;;;;;;10.18;7.88;;;22.80;99.90;;;;;;5075603;28;20119;-63
2023/08/23 07:24:31;;;;;;;10.38;8.50;;;22.70;99.90;;;;;;5076678;28;20075;-63
2023/08/23 07:26:58;;;;;;;10.27;7.93;;;22.60;99.90;;;;;;5076747;28;20060;-63
2023/08/23 07:29:24;;;;;;;9.20;7.85;;;22.60;99.90;;;;;;5076422;28;20411;-62
2023/08/23 07:31:50;;;;;;;8.98;7.63;;;22.50;99.90;;;;;;5094018;28;20109;-63
2023/08/23 07:34:17;;;;;;;9.35;7.32;;;22.50;99.90;;;;;;5075059;28;20040;-63
2023/08/23 07:36:43;;;;;;;10.07;7.53;;;22.50;99.90;;;;;;5056681;28;20052;-63
2023/08/23 07:39:11;;;;;;;10.68;7.95;;;22.50;99.90;;;;;;5056252;28;20068;-63
2023/08/23 07:41:37;;;;;;;8.63;7.72;;;22.40;99.90;;;;;;5056562;28;20106;-62
2023/08/23 07:44:03;;;;;;;8.98;8.05;;;22.40;99.90;;;;;;5073663;28;20060;-62
2023/08/23 07:46:29;;;;;;;10.05;7.32;;;22.50;99.90;;;;;;5074394;28;20060;-62
2023/08/23 07:48:56;;;;;;;10.80;7.90;;;22.60;99.90;;;;;;5074379;28;20060;-62
2023/08/23 07:51:22;;;;;;;12.00;8.73;;;22.60;99.90;;;;;;5074530;28;20045;-63
2023/08/23 07:53:49;;;;;;;11.07;8.13;;;22.40;99.90;;;;;;5055954;28;20098;-63
2023/08/23 07:56:15;;;;;;;10.68;9.18;;;22.40;99.90;;;;;;5039983;28;20049;-62
2023/08/23 07:58:43;;;;;;;11.18;8.82;;;22.30;99.90;;;;;;5040379;28;20059;-62
2023/08/23 08:01:09;;;;;;;11.05;8.20;;;22.20;99.90;;;;;;5074157;28;20117;-63
2023/08/23 08:03:35;;;;;;;10.70;9.25;;;22.30;99.90;;;;;;5073884;28;20049;-63
2023/08/23 08:06:01;;;;;;;11.50;9.48;;;22.40;99.90;;;;;;5074324;28;20136;-63
2023/08/23 08:08:28;;;;;;;10.85;8.70;;;22.70;99.90;;;;;;5074003;28;20492;-62
2023/08/23 08:10:54;;;;;;;11.60;8.35;;;22.80;99.90;;;;;;5074461;28;20067;-63
2023/08/23 08:13:20;;;;;;;10.45;8.40;;;23.00;99.90;;;;;;5055543;28;20048;-63
2023/08/23 08:15:47;;;;;;;10.20;8.38;;;23.00;99.90;;;;;;5073654;28;20055;-63
2023/08/23 08:18:13;;;;;;;10.55;8.07;;;23.00;99.90;;;;;;5056242;28;20177;-64
2023/08/23 08:20:39;;;;;;;10.02;8.05;;;23.20;99.90;;;;;;5073087;28;20052;-62
2023/08/23 08:23:07;;;;;;;14.50;9.00;;;23.40;99.90;;;;;;5054749;28;20143;-62
2023/08/23 08:25:33;;;;;;;9.50;8.20;;;23.50;99.90;;;;;;5073025;28;20100;-62
2023/08/23 08:28:07;;;;;;;10.43;8.50;;;23.50;99.90;;;;;;5072980;28;20060;-63
2023/08/23 08:30:33;;;;;;;9.07;7.50;;;23.50;99.90;;;;;;5073079;28;20071;-63
2023/08/23 08:32:59;;;;;;;10.13;8.88;;;23.50;99.90;;;;;;5072260;28;20048;-62
2023/08/23 08:35:26;;;;;;;10.27;8.70;;;23.40;99.90;;;;;;5072880;28;20330;-62
2023/08/23 08:37:52;;;;;;;9.65;8.65;;;23.60;99.90;;;;;;5069663;28;20060;-62
2023/08/23 08:40:21;;;;;;;12.18;9.00;;;23.80;99.90;;;;;;5035452;28;20059;-63
2023/08/23 08:42:49;;;;;;;12.27;8.73;;;23.80;99.90;;;;;;5018683;28;20120;-62
2023/08/23 08:45:16;;;;;;;9.98;7.72;;;23.70;99.90;;;;;;5053173;28;20048;-63
2023/08/23 08:47:42;;;;;;;11.50;8.23;;;23.50;99.90;;;;;;5035687;28;20080;-61
2023/08/23 08:50:09;;;;;;;10.23;8.30;;;23.30;99.90;;;;;;5052894;28;20049;-62
2023/08/23 08:52:41;;;;;;;10.73;8.18;;;23.20;99.90;;;;;;5051963;28;20049;-62
2023/08/23 08:55:10;;;;;;;9.88;7.70;;;23.10;99.90;;;;;;5035945;28;20064;-62
2023/08/23 08:57:37;;;;;;;9.77;8.23;;;23.40;99.90;;;;;;5035588;28;20053;-62
2023/08/23 09:00:05;;;;;;;11.57;8.32;;;23.50;99.90;;;;;;5052704;28;20060;-62
2023/08/23 09:02:32;;;;;;;10.20;6.85;;;23.50;99.90;;;;;;5051755;28;20041;-62
2023/08/23 09:05:01;;;;;;;9.68;7.07;;;23.30;99.90;;;;;;5052060;28;20061;-62
2023/08/23 09:07:28;;;;;;;9.77;6.72;;;23.30;99.90;;;;;;5035057;28;20118;-62
2023/08/23 09:09:55;;;;;;;8.70;5.50;;;23.40;99.90;;;;;;5035463;28;20041;-62
2023/08/23 09:12:21;;;;;;;9.57;5.78;;;23.40;99.90;;;;;;5034009;28;20044;-62
2023/08/23 09:14:49;;;;;;;9.40;6.90;;;23.50;99.90;;;;;;5051993;28;20345;-62
2023/08/23 09:17:19;;;;;;;8.82;6.40;;;23.50;99.90;;;;;;5034890;28;20171;-62
2023/08/23 09:19:45;;;;;;;12.00;7.22;;;23.40;99.90;;;;;;5034652;28;20064;-61
2023/08/23 09:22:20;;;;;;;10.15;7.75;;;23.50;99.90;;;;;;5051438;28;20049;-62
2023/08/23 09:24:47;;;;;;;11.68;7.47;;;23.50;99.90;;;;;;5034705;28;20357;-62
2023/08/23 09:27:14;;;;;;;13.52;7.82;;;23.60;99.90;;;;;;5052408;28;20061;-62
2023/08/23 09:29:47;;;;;;;11.27;8.00;;;23.60;99.90;;;;;;5052047;28;20059;-62
2023/08/23 09:32:14;;;;;;;12.52;8.55;;;23.70;99.90;;;;;;5051347;28;20044;-63
2023/08/23 09:34:41;;;;;;;10.25;7.63;;;23.70;99.90;;;;;;5033936;28;20101;-63
2023/08/23 09:37:07;;;;;;;11.85;8.38;;;23.80;99.90;;;;;;5051620;28;20483;-62
2023/08/23 09:39:34;;;;;;;11.63;8.45;;;24.00;99.90;;;;;;5062474;28;20048;-62
2023/08/23 09:42:13;;;;;;;9.27;7.65;;;23.90;99.90;;;;;;5054598;28;20059;-63
2023/08/23 09:44:46;;;;;;;10.30;8.30;;;24.10;99.90;;;;;;5052461;28;20048;-62
2023/08/23 09:47:18;;;;;;;10.75;8.65;;;24.10;99.90;;;;;;5052169;28;20449;-62
2023/08/23 09:49:44;;;;;;;;;;;23.90;99.90;;;;;;5053034;28;20057;-62
2023/08/23 09:52:11;;;;;;;10.27;8.25;;;23.90;99.90;;;;;;5052595;28;20004;-62
2023/08/23 09:54:44;;;;;;;11.43;8.82;;;24.00;99.90;;;;;;5037578;28;20508;-63
2023/08/23 09:57:10;;;;;;;12.45;8.52;;;24.10;99.90;;;;;;5072104;28;20051;-63
2023/08/23 09:59:37;;;;;;;11.32;8.10;;;24.20;99.90;;;;;;5072184;28;20106;-62
2023/08/23 10:02:09;;;;;;;10.05;8.13;;;24.30;99.90;;;;;;5071142;28;20048;-62
2023/08/23 10:04:40;;;;;;;11.32;8.55;;;24.40;99.90;;;;;;5051787;28;20060;-61
2023/08/23 10:07:08;;;;;;;14.65;8.75;;;24.60;99.90;;;;;;5051679;28;20060;-61
2023/08/23 10:09:38;;;;;;;10.05;8.07;;;24.60;99.90;;;;;;5034621;28;20052;-62
2023/08/23 10:12:07;;;;;;;13.02;8.90;;;24.50;99.90;;;;;;5051602;28;20045;-62
2023/08/23 10:14:37;;;;;;;10.18;7.88;;;24.40;99.90;;;;;;5071333;28;20408;-63
2023/08/23 10:17:05;;;;;;;10.43;8.18;;;24.60;99.90;;;;;;5071757;28;20045;-62
2023/08/23 10:19:33;;;;;;;12.23;8.30;;;24.60;99.90;;;;;;5071361;28;20044;-62
2023/08/23 10:21:59;;;;;;;9.00;7.18;;;24.80;99.90;;;;;;5052850;28;20489;-62
2023/08/23 10:24:30;;;;;;;9.10;7.47;;;24.80;99.90;;;;;;5071260;28;20441;-62
2023/08/23 10:27:05;;;;;;;9.63;7.60;;;25.20;99.90;;;;;;5054139;28;20096;-62
2023/08/23 10:29:31;;;;;;;9.52;7.28;;;25.20;99.90;;;;;;5037512;28;20049;-63
2023/08/23 10:31:58;;;;;;;10.35;7.72;;;25.30;99.90;;;;;;5071092;28;20139;-61
2023/08/23 10:34:25;;;;;;;10.38;6.97;;;25.20;99.90;;;;;;5070777;28;20060;-62
2023/08/23 10:36:53;;;;;;;13.00;8.00;;;25.30;99.90;;;;;;5071501;28;20066;-62
2023/08/23 10:39:24;;;;;;;11.35;7.68;;;25.40;99.90;;;;;;5038504;28;20109;-62
2023/08/23 10:41:54;;;;;;;8.50;6.97;;;25.40;99.90;;;;;;5051142;28;20110;-62
2023/08/23 10:44:29;;;;;;;9.75;7.20;;;25.40;99.90;;;;;;5051255;28;20110;-61
2023/08/23 10:46:58;;;;;;;9.93;6.70;;;25.40;99.90;;;;;;5051409;28;20049;-61
2023/08/23 10:49:26;;;;;;;8.52;5.70;;;25.40;99.90;;;;;;5019236;28;20476;-62
2023/08/23 10:51:53;;;;;;;10.15;5.47;;;25.30;99.90;;;;;;5054345;28;20056;-63
2023/08/23 10:54:19;;;;;;;9.20;6.43;;;25.30;99.90;;;;;;5054538;28;20496;-63
2023/08/23 10:56:46;;;;;;;8.73;5.57;;;25.20;99.90;;;;;;5055335;28;20103;-62
2023/08/23 10:59:12;;;;;;;10.73;6.72;;;25.20;99.90;;;;;;5055506;28;20045;-61
2023/08/23 11:01:39;;;;;;;8.18;6.15;;;25.10;99.90;;;;;;5036935;28;20049;-62
2023/08/23 11:04:07;;;;;;;9.93;6.65;;;25.30;99.90;;;;;;5054254;28;20330;-61
2023/08/23 11:06:35;;;;;;;10.40;7.75;;;25.50;99.90;;;;;;5054343;28;20418;-61
2023/08/23 11:09:07;;;;;;;15.10;7.68;;;25.40;99.90;;;;;;5036601;28;20049;-62
2023/08/23 11:11:35;;;;;;;10.57;7.32;;;25.30;99.90;;;;;;5054051;28;20107;-62
2023/08/23 11:14:03;;;;;;;10.38;7.38;;;25.30;99.90;;;;;;5036288;28;20057;-63
2023/08/23 11:16:30;;;;;;;11.93;8.15;;;25.20;99.90;;;;;;5019981;28;20191;-63
2023/08/23 11:18:57;;;;;;;9.20;7.20;;;25.30;99.90;;;;;;5054274;28;20045;-63
2023/08/23 11:21:25;;;;;;;9.32;7.68;;;25.40;99.90;;;;;;5053761;28;20060;-63
2023/08/23 11:23:53;;;;;;;10.05;7.55;;;25.30;99.90;;;;;;5036339;28;20056;-63
2023/08/23 11:26:20;;;;;;;11.82;8.35;;;25.50;99.90;;;;;;5054073;28;20126;-62
2023/08/23 11:28:47;;;;;;;12.45;7.57;;;25.50;99.90;;;;;;5036516;28;20049;-63
2023/08/23 11:31:13;;;;;;;9.48;6.78;;;25.50;99.90;;;;;;5054520;28;20069;-62
2023/08/23 11:33:40;;;;;;;10.45;7.18;;;25.60;99.90;;;;;;5053194;28;20121;-62
2023/08/23 11:36:07;;;;;;;10.70;8.10;;;25.50;99.90;;;;;;5054244;28;20045;-62
2023/08/23 11:38:33;;;;;;;8.68;6.68;;;25.60;99.90;;;;;;5062399;28;20045;-64
2023/08/23 11:41:00;;;;;;;12.10;7.75;;;25.70;99.90;;;;;;5056316;28;20059;-63
2023/08/23 11:43:29;;;;;;;10.07;7.60;;;25.80;99.90;;;;;;5073222;28;20114;-63
2023/08/23 11:45:56;;;;;;;11.27;6.82;;;25.80;99.90;;;;;;5074126;28;20049;-63
2023/08/23 11:48:25;;;;;;;7.82;5.60;;;26.00;99.90;;;;;;5073950;28;20055;-63
2023/08/23 11:50:52;;;;;;;8.32;5.50;;;26.20;99.90;;;;;;5074209;28;20044;-63
2023/08/23 11:53:19;;;;;;;8.13;4.88;;;26.20;99.90;;;;;;5055320;28;20044;-63
2023/08/23 11:55:48;;;;;;;7.05;4.80;;;26.00;99.90;;;;;;5074120;28;20045;-60
2023/08/23 11:58:15;;;;;;;8.57;5.38;;;26.00;99.90;;;;;;5056324;28;20048;-62
2023/08/23 12:00:41;;;;;;;7.05;4.57;;;26.30;99.90;;;;;;5073649;28;20052;-63
2023/08/23 12:03:09;;;;;;;5.22;4.20;;;26.50;99.90;;;;;;5055440;28;20420;-62
2023/08/23 12:05:36;;;;;;;8.00;4.03;;;26.80;99.90;;;;;;5056073;28;20345;-62
2023/08/23 12:08:03;;;;;;;7.88;4.28;;;27.00;99.90;;;;;;5056183;28;20048;-63
2023/08/23 12:10:30;;;;;;;10.75;5.45;;;27.20;99.90;;;;;;5056174;28;20059;-64
2023/08/23 12:12:56;;;;;;;11.98;5.63;;;27.20;99.90;;;;;;5055347;28;20087;-63
2023/08/23 12:15:22;;;;;;;5.80;5.20;;;27.10;99.90;;;;;;5073191;28;20373;-63
2023/08/23 12:17:49;;;;;;;7.65;4.28;;;27.10;99.90;;;;;;5073542;28;20048;-63
2023/08/23 12:20:15;;;;;;;9.40;4.32;;;27.10;99.90;;;;;;5056012;28;20044;-63
2023/08/23 12:22:46;;;;;;;10.52;5.65;;;27.20;99.90;;;;;;5038355;28;20041;-63
2023/08/23 12:25:13;;;;;;;8.13;5.43;;;27.20;99.90;;;;;;5055536;28;20385;-63
2023/08/23 12:27:39;;;;;;;6.90;3.90;;;26.90;99.90;;;;;;5055698;28;20044;-62
2023/08/23 12:30:06;;;;;;;6.45;3.65;;;26.80;99.90;;;;;;5072992;28;20378;-62
2023/08/23 12:32:32;;;;;;;6.93;3.80;;;26.60;99.90;;;;;;5072165;28;20052;-63
2023/08/23 12:34:59;;;;;;;11.05;4.00;;;26.80;99.90;;;;;;5072886;28;20048;-62
2023/08/23 12:37:25;;;;;;;7.30;4.10;;;26.90;99.90;;;;;;5073085;28;20052;-62
2023/08/23 12:39:51;;;;;;;6.20;3.60;;;26.80;99.90;;;;;;5072781;28;20494;-63
2023/08/23 12:42:17;;;;;;;10.32;4.72;;;26.60;99.90;;;;;;5071695;28;20049;-64